createdAt,value
2023-05-02T00:00:08.163Z,4.40
2023-05-02T00:02:36.943Z,3.95
2023-05-02T00:05:06.692Z,4.00
2023-05-02T00:07:35.513Z,4.15
2023-05-02T00:10:04.294Z,3.90
2023-05-02T00:12:33.014Z,4.17
2023-05-02T00:15:01.935Z,4.55
2023-05-02T00:17:30.781Z,3.80
2023-05-02T00:20:00.483Z,3.72
2023-05-02T00:22:29.987Z,3.80
2023-05-02T00:24:59.284Z,4.35
2023-05-02T00:27:27.985Z,4.42
2023-05-02T00:29:56.694Z,3.65
2023-05-02T00:32:25.603Z,4.05
2023-05-02T00:34:54.681Z,4.20
2023-05-02T00:37:24.911Z,4.08
2023-05-02T00:39:53.632Z,4.70
2023-05-02T00:42:22.531Z,4.15
2023-05-02T00:44:53.412Z,4.20
2023-05-02T00:47:22.472Z,3.77
2023-05-02T00:49:54.432Z,4.20
2023-05-02T00:52:23.587Z,4.47
2023-05-02T00:54:53.020Z,4.50
2023-05-02T00:57:21.814Z,4.40
2023-05-02T00:59:51.355Z,4.17
2023-05-02T01:02:41.231Z,4.20
2023-05-02T01:05:25.186Z,4.15
2023-05-02T01:07:56.820Z,3.95
2023-05-02T01:10:43.402Z,4.83
2023-05-02T01:13:15.153Z,5.05
2023-05-02T01:15:45.630Z,4.58
2023-05-02T01:18:18.695Z,4.80
2023-05-02T01:20:49.683Z,4.37
2023-05-02T01:23:36.528Z,4.47
2023-05-02T01:26:20.740Z,4.72
2023-05-02T01:29:04.390Z,4.65
2023-05-02T01:31:45.469Z,4.70
2023-05-02T01:34:14.045Z,4.65
2023-05-02T01:36:48.504Z,6.47
2023-05-02T01:39:26.269Z,5.20
2023-05-02T01:41:57.916Z,6.15
2023-05-02T01:44:28.373Z,4.65
2023-05-02T01:46:59.075Z,4.83
2023-05-02T01:49:30.688Z,4.55
2023-05-02T01:52:03.325Z,4.87
2023-05-02T01:54:34.254Z,4.58
2023-05-02T01:57:06.084Z,4.63
2023-05-02T01:59:40.270Z,6.22
2023-05-02T02:02:10.348Z,4.90
2023-05-02T02:04:41.378Z,5.05
2023-05-02T02:07:12.952Z,4.60
2023-05-02T02:09:42.614Z,4.62
2023-05-02T02:12:20.308Z,4.53
2023-05-02T02:14:52.272Z,4.17
2023-05-02T02:17:24.003Z,4.60
2023-05-02T02:19:55.107Z,4.95
2023-05-02T02:22:27.090Z,4.90
2023-05-02T02:24:56.684Z,5.60
2023-05-02T02:27:25.644Z,4.58
2023-05-02T02:29:54.457Z,5.90
2023-05-02T02:32:23.309Z,5.35
2023-05-02T02:34:52.559Z,5.12
2023-05-02T02:37:23.645Z,6.03
2023-05-02T02:40:19.504Z,4.85
2023-05-02T02:42:57.415Z,5.78
2023-05-02T02:45:41.157Z,5.08
2023-05-02T02:48:18.984Z,5.25
2023-05-02T02:51:13.715Z,5.92
2023-05-02T02:54:15.429Z,5.45
2023-05-02T02:56:42.656Z,5.50
2023-05-02T02:59:29.124Z,5.90
2023-05-02T03:02:11.908Z,5.70
2023-05-02T03:04:48.026Z,5.57
2023-05-02T03:07:17.017Z,5.80
2023-05-02T03:09:47.416Z,5.87
2023-05-02T03:12:16.520Z,5.87
2023-05-02T03:14:45.399Z,5.08
2023-05-02T03:17:14.131Z,5.47
2023-05-02T03:19:45.757Z,5.87
2023-05-02T03:22:14.400Z,5.95
2023-05-02T03:24:43.098Z,5.47
2023-05-02T03:27:11.801Z,5.87
2023-05-02T03:29:40.725Z,5.40
2023-05-02T03:32:10.670Z,5.90
2023-05-02T03:34:39.711Z,5.17
2023-05-02T03:37:08.399Z,5.83
2023-05-02T03:46:59.661Z,6.00
2023-05-02T03:49:51.321Z,6.85
2023-05-02T03:52:20.038Z,5.30
2023-05-02T03:54:48.739Z,5.97
2023-05-02T03:57:17.571Z,5.60
2023-05-02T03:59:47.786Z,5.25
2023-05-02T04:02:16.561Z,4.85
2023-05-02T04:04:45.319Z,5.80
2023-05-02T04:07:15.658Z,5.47
2023-05-02T04:09:46.169Z,5.90
2023-05-02T04:12:16.951Z,5.37
2023-05-02T04:14:45.615Z,5.80
2023-05-02T04:17:16.086Z,5.25
2023-05-02T04:19:47.938Z,4.95
2023-05-02T04:22:16.860Z,5.83
2023-05-02T04:24:45.763Z,5.50
2023-05-02T04:30:20.768Z,5.60
2023-05-02T04:32:53.688Z,6.20
2023-05-02T04:35:22.954Z,7.00
2023-05-02T04:42:24.141Z,6.33
2023-05-02T04:44:52.946Z,5.30
2023-05-02T04:47:21.744Z,5.20
2023-05-02T04:49:55.610Z,5.30
2023-05-02T04:52:24.577Z,5.83
2023-05-02T04:54:53.352Z,5.37
2023-05-02T04:57:26.286Z,5.45
2023-05-02T04:59:55.286Z,4.60
2023-05-02T05:02:26.125Z,5.83
2023-05-02T05:04:55.053Z,5.15
2023-05-02T05:07:23.866Z,4.90
2023-05-02T05:09:53.447Z,4.83
2023-05-02T05:12:22.479Z,4.72
2023-05-02T05:14:51.229Z,5.17
2023-05-02T05:17:20.243Z,4.70
2023-05-02T05:19:51.345Z,4.55
2023-05-02T05:22:30.596Z,5.50
2023-05-02T05:25:01.754Z,4.85
2023-05-02T05:27:30.612Z,6.28
2023-05-02T05:29:59.789Z,4.55
2023-05-02T05:32:29.679Z,4.12
2023-05-02T05:35:01.172Z,5.97
2023-05-02T05:37:31.493Z,4.42
2023-05-02T05:40:00.584Z,3.77
2023-05-02T05:42:52.753Z,4.08
2023-05-02T05:45:21.470Z,4.87
2023-05-02T05:47:50.170Z,3.87
2023-05-02T05:50:18.948Z,6.08
2023-05-02T05:52:47.786Z,4.70
2023-05-02T05:55:22.438Z,3.55
2023-05-02T05:57:51.602Z,3.92
2023-05-02T06:00:22.652Z,4.00
2023-05-02T06:02:51.615Z,4.47
2023-05-02T06:05:22.053Z,4.33
2023-05-02T06:07:52.352Z,3.70
2023-05-02T06:10:21.301Z,3.77
2023-05-02T06:12:50.050Z,4.97
2023-05-02T06:15:18.997Z,4.15
2023-05-02T06:17:48.118Z,4.37
2023-05-02T06:20:18.600Z,3.98
2023-05-02T06:22:47.692Z,3.83
2023-05-02T06:25:19.469Z,4.15
2023-05-02T06:27:48.397Z,3.67
2023-05-02T06:30:17.205Z,3.80
2023-05-02T06:32:49.348Z,3.50
2023-05-02T06:35:18.213Z,3.33
2023-05-02T06:37:48.447Z,3.12
2023-05-02T06:40:20.215Z,3.10
2023-05-02T06:42:49.250Z,3.35
2023-05-02T06:45:17.969Z,3.65
2023-05-02T06:47:48.381Z,3.60
2023-05-02T06:50:18.041Z,3.08
2023-05-02T06:52:47.109Z,3.75
2023-05-02T06:55:18.077Z,2.92
2023-05-02T06:57:53.020Z,3.20
2023-05-02T07:00:23.768Z,3.15
2023-05-02T07:02:55.376Z,3.22
2023-05-02T07:05:31.634Z,3.70
2023-05-02T07:08:00.476Z,2.77
2023-05-02T07:10:29.251Z,2.70
2023-05-02T07:12:58.162Z,3.22
2023-05-02T07:15:29.931Z,3.05
2023-05-02T07:18:06.179Z,2.67
2023-05-02T07:20:35.889Z,3.20
2023-05-02T07:23:04.488Z,3.00
2023-05-02T07:25:33.307Z,2.92
2023-05-02T07:28:02.100Z,2.62
2023-05-02T07:30:30.874Z,2.65
2023-05-02T07:32:59.589Z,2.80
2023-05-02T07:35:28.447Z,2.70
2023-05-02T07:37:57.126Z,2.62
2023-05-02T07:40:26.017Z,3.00
2023-05-02T07:42:54.764Z,2.67
2023-05-02T07:45:25.245Z,2.85
2023-05-02T07:47:53.911Z,2.50
2023-05-02T07:50:22.670Z,2.58
2023-05-02T07:52:51.397Z,3.00
2023-05-02T07:55:20.290Z,2.40
2023-05-02T07:57:48.998Z,2.70
2023-05-02T08:00:18.164Z,2.33
2023-05-02T08:02:47.238Z,3.72
2023-05-02T08:05:16.166Z,2.25
2023-05-02T08:07:45.006Z,4.37
2023-05-02T08:10:13.653Z,16.17
2023-05-02T08:12:43.389Z,6.53
2023-05-02T08:15:14.089Z,5.22
2023-05-02T08:17:42.727Z,23.20
2023-05-02T08:20:11.711Z,3.30
2023-05-02T08:22:45.725Z,2.90
2023-05-02T08:25:14.566Z,2.65
2023-05-02T08:27:43.350Z,2.90
2023-05-02T08:30:12.552Z,2.77
2023-05-02T08:32:43.016Z,2.55
2023-05-02T08:35:11.910Z,2.52
2023-05-02T08:37:41.368Z,2.80
2023-05-02T08:40:12.947Z,2.65
2023-05-02T08:42:46.214Z,2.22
2023-05-02T08:45:16.843Z,2.42
2023-05-02T08:47:47.869Z,2.60
2023-05-02T08:50:19.137Z,2.45
2023-05-02T08:52:50.295Z,1.95
2023-05-02T08:55:22.275Z,4.97
2023-05-02T08:57:53.962Z,2.70
2023-05-02T09:00:22.560Z,3.60
2023-05-02T09:02:57.148Z,1.95
2023-05-02T09:05:26.436Z,2.02
2023-05-02T09:07:55.078Z,2.40
2023-05-02T09:10:25.474Z,2.22
2023-05-02T09:12:55.711Z,2.00
2023-05-02T09:15:24.673Z,2.15
2023-05-02T09:17:53.585Z,2.10
2023-05-02T09:20:22.340Z,1.60
2023-05-02T09:22:55.430Z,1.90
2023-05-02T09:25:27.096Z,2.33
2023-05-02T09:28:00.906Z,2.30
2023-05-02T09:30:30.047Z,1.95
2023-05-02T09:32:58.961Z,2.12
2023-05-02T09:35:28.058Z,1.90
2023-05-02T09:37:58.187Z,3.80
2023-05-02T09:40:28.064Z,1.70
2023-05-02T09:42:57.936Z,1.77
2023-05-02T09:45:30.193Z,1.85
2023-05-02T09:48:01.915Z,1.90
2023-05-02T09:50:40.334Z,1.82
2023-05-02T09:53:12.054Z,2.27
2023-05-02T09:55:44.063Z,2.20
2023-05-02T09:58:24.366Z,1.95
2023-05-02T10:00:53.152Z,2.20
2023-05-02T10:03:25.215Z,2.15
2023-05-02T10:05:54.935Z,2.08
2023-05-02T10:08:28.976Z,1.70
2023-05-02T10:11:01.872Z,1.72
2023-05-02T10:13:32.677Z,1.67
2023-05-02T10:16:03.278Z,1.90
2023-05-02T10:18:44.280Z,1.98
2023-05-02T10:21:14.986Z,2.20
2023-05-02T10:23:46.976Z,2.52
2023-05-02T10:26:18.526Z,2.10
2023-05-02T10:28:49.272Z,2.08
2023-05-02T10:31:19.195Z,1.95
2023-05-02T10:33:51.051Z,2.12
2023-05-02T10:36:24.801Z,2.10
2023-05-02T10:38:53.932Z,1.92
2023-05-02T10:41:26.693Z,2.45
2023-05-02T10:43:55.637Z,1.80
2023-05-02T10:46:40.761Z,2.08
2023-05-02T10:49:14.186Z,2.17
2023-05-02T10:51:44.392Z,2.12
2023-05-02T10:54:53.838Z,1.60
2023-05-02T10:57:23.163Z,1.85
2023-05-02T10:59:51.909Z,1.98
2023-05-02T11:02:28.683Z,2.05
2023-05-02T11:05:08.890Z,1.50
2023-05-02T11:07:39.014Z,1.60
2023-05-02T11:10:24.343Z,2.12
2023-05-02T11:12:55.162Z,2.12
2023-05-02T11:15:33.465Z,1.67
2023-05-02T11:18:18.573Z,2.00
2023-05-02T11:20:47.453Z,1.80
2023-05-02T11:23:21.005Z,1.90
2023-05-02T11:25:54.635Z,1.85
2023-05-02T11:28:42.860Z,1.75
2023-05-02T11:31:29.428Z,1.87
2023-05-02T11:33:59.044Z,1.65
2023-05-02T11:36:36.546Z,2.08
2023-05-02T11:39:06.404Z,2.00
2023-05-02T11:41:43.551Z,1.52
2023-05-02T11:44:12.368Z,2.35
2023-05-02T11:46:42.886Z,1.80
2023-05-02T11:49:14.825Z,1.50
2023-05-02T11:51:44.554Z,1.92
2023-05-02T11:54:29.311Z,1.80
2023-05-02T11:57:01.421Z,1.92
2023-05-02T11:59:30.524Z,1.87
2023-05-02T12:05:31.575Z,1.70
2023-05-02T12:08:01.947Z,1.45
2023-05-02T12:10:38.938Z,1.35
2023-05-02T12:13:09.383Z,1.90
2023-05-02T12:15:38.472Z,1.57
2023-05-02T12:18:07.870Z,1.90
2023-05-02T12:20:38.976Z,1.87
2023-05-02T12:23:11.355Z,1.85
2023-05-02T12:26:04.384Z,1.80
2023-05-02T12:28:33.124Z,1.77
2023-05-02T12:31:04.764Z,1.87
2023-05-02T12:33:36.484Z,1.22
2023-05-02T12:36:11.427Z,1.70
2023-05-02T12:38:44.697Z,1.67
2023-05-02T12:41:13.511Z,1.62
2023-05-02T12:43:48.387Z,1.80
2023-05-02T12:46:17.424Z,1.62
2023-05-02T12:48:46.852Z,1.60
2023-05-02T12:51:25.408Z,1.67
2023-05-02T12:53:54.069Z,1.77
2023-05-02T12:56:24.588Z,1.60
2023-05-02T12:58:53.306Z,1.40
2023-05-02T13:01:22.004Z,1.52
2023-05-02T13:03:52.613Z,1.62
2023-05-02T13:06:21.472Z,3.12
2023-05-02T13:08:50.111Z,3.65
2023-05-02T13:11:19.450Z,8.33
2023-05-02T13:13:51.226Z,1.77
2023-05-02T13:16:21.908Z,2.00
2023-05-02T13:19:02.198Z,1.40
2023-05-02T13:21:32.093Z,1.87
2023-05-02T13:24:05.333Z,2.40
2023-05-02T13:26:35.791Z,4.08
2023-05-02T13:29:04.747Z,2.67
2023-05-02T13:31:33.562Z,1.65
2023-05-02T13:34:02.437Z,2.87
2023-05-02T13:36:31.245Z,2.47
2023-05-02T13:38:59.951Z,3.10
2023-05-02T13:41:28.588Z,2.12
2023-05-02T13:43:58.097Z,1.80
2023-05-02T13:46:28.255Z,3.77
2023-05-02T13:48:57.251Z,5.47
2023-05-02T13:51:27.623Z,2.10
2023-05-02T13:53:56.718Z,2.98
2023-05-02T13:56:26.215Z,2.02
2023-05-02T13:58:55.227Z,2.85
2023-05-02T14:01:26.029Z,1.20
2023-05-02T14:03:55.225Z,1.70
2023-05-02T14:06:24.337Z,1.82
2023-05-02T14:08:55.040Z,4.22
2023-05-02T14:11:25.502Z,1.60
2023-05-02T14:13:54.992Z,1.77
2023-05-02T14:16:23.664Z,1.65
2023-05-02T14:18:52.335Z,1.20
2023-05-02T14:21:21.094Z,1.60
2023-05-02T14:23:51.564Z,1.50
2023-05-02T14:26:20.546Z,1.77
2023-05-02T14:28:50.631Z,1.60
2023-05-02T14:31:22.882Z,1.62
2023-05-02T14:33:51.706Z,1.67
2023-05-02T14:36:20.927Z,5.40
2023-05-02T14:38:49.745Z,2.52
2023-05-02T14:41:20.667Z,2.90
2023-05-02T14:43:50.340Z,1.72
2023-05-02T14:46:19.092Z,2.25
2023-05-02T14:48:47.810Z,6.00
2023-05-02T14:51:17.002Z,1.42
2023-05-02T14:53:47.608Z,1.35
2023-05-02T14:56:17.449Z,1.40
2023-05-02T14:58:46.472Z,1.80
2023-05-02T15:01:23.252Z,1.32
2023-05-02T15:04:05.886Z,1.20
2023-05-02T15:06:23.008Z,1.27
2023-05-02T15:08:52.062Z,1.65
2023-05-02T15:11:20.749Z,1.60
2023-05-02T15:13:52.397Z,1.40
2023-05-02T15:16:21.657Z,3.08
2023-05-02T15:18:50.523Z,1.20
2023-05-02T15:21:19.251Z,4.33
2023-05-02T15:23:48.000Z,1.50
2023-05-02T15:26:18.325Z,1.20
2023-05-02T15:28:46.982Z,2.15
2023-05-02T15:31:15.657Z,1.17
2023-05-02T15:33:44.499Z,1.42
2023-05-02T15:36:13.755Z,1.82
2023-05-02T15:38:45.701Z,1.42
2023-05-02T15:41:15.244Z,1.10
2023-05-02T15:43:44.374Z,1.95
2023-05-02T15:46:14.792Z,1.60
2023-05-02T15:48:43.532Z,1.47
2023-05-02T15:51:14.225Z,1.47
2023-05-02T15:53:47.731Z,1.35
2023-05-02T15:56:16.663Z,1.50
2023-05-02T15:58:45.310Z,1.30
2023-05-02T16:01:15.605Z,1.67
2023-05-02T16:03:48.791Z,1.27
2023-05-02T16:06:17.696Z,1.50
2023-05-02T16:08:46.381Z,2.20
2023-05-02T16:11:15.227Z,1.75
2023-05-02T16:14:03.475Z,2.05
2023-05-02T16:16:38.119Z,1.57
2023-05-02T16:19:10.027Z,1.30
2023-05-02T16:21:45.420Z,1.90
2023-05-02T16:24:15.950Z,1.77
2023-05-02T16:26:45.685Z,1.35
2023-05-02T16:29:16.550Z,1.40
2023-05-02T16:31:45.581Z,1.60
2023-05-02T16:34:14.268Z,1.90
2023-05-02T16:36:45.984Z,2.98
2023-05-02T16:39:14.830Z,2.10
2023-05-02T16:41:45.307Z,2.33
2023-05-02T16:44:18.795Z,2.60
2023-05-02T16:46:47.721Z,1.70
2023-05-02T16:49:16.598Z,2.25
2023-05-02T16:51:47.206Z,2.30
2023-05-02T16:54:15.965Z,1.75
2023-05-02T16:56:44.657Z,2.75
2023-05-02T16:59:13.464Z,2.05
2023-05-02T17:01:42.197Z,2.65
2023-05-02T17:04:10.760Z,2.98
2023-05-02T17:06:39.792Z,1.82
2023-05-02T17:09:08.492Z,2.20
2023-05-02T17:11:37.164Z,1.40
2023-05-02T17:14:06.475Z,2.98
2023-05-02T17:16:35.172Z,3.42
2023-05-02T17:19:03.828Z,1.98
2023-05-02T17:21:35.878Z,1.98
2023-05-02T17:24:04.654Z,2.33
2023-05-02T17:26:37.378Z,3.77
2023-05-02T17:29:06.053Z,3.10
2023-05-02T17:31:34.953Z,1.82
2023-05-02T17:34:03.632Z,4.05
2023-05-02T17:36:32.912Z,6.17
2023-05-02T17:39:02.304Z,7.03
2023-05-02T17:41:51.705Z,2.72
2023-05-02T17:44:51.615Z,2.37
2023-05-02T17:47:24.162Z,3.15
2023-05-02T17:49:54.402Z,2.92
2023-05-02T17:52:48.399Z,3.00
2023-05-02T17:55:20.386Z,15.15
2023-05-02T17:57:51.657Z,11.50
2023-05-02T18:00:20.660Z,9.25
2023-05-02T18:02:49.780Z,11.50
2023-05-02T18:05:18.638Z,7.33
2023-05-02T18:07:48.929Z,2.77
2023-05-02T18:10:17.843Z,3.08
2023-05-02T18:13:10.179Z,3.33
2023-05-02T18:15:39.002Z,3.65
2023-05-02T18:18:09.222Z,5.67
2023-05-02T18:20:43.745Z,4.72
2023-05-02T18:23:12.660Z,6.12
2023-05-02T18:25:52.249Z,9.00
2023-05-02T18:28:31.056Z,11.45
2023-05-02T18:30:59.612Z,3.10
2023-05-02T18:33:39.710Z,1.72
2023-05-02T18:36:10.069Z,2.40
2023-05-02T18:38:41.423Z,1.60
2023-05-02T18:41:12.152Z,1.87
2023-05-02T18:43:47.301Z,1.62
2023-05-02T18:46:25.608Z,3.15
2023-05-02T18:49:18.443Z,2.62
2023-05-02T18:51:56.916Z,2.25
2023-05-02T18:57:12.733Z,2.37
2023-05-02T18:59:45.891Z,2.05
2023-05-02T19:02:16.351Z,2.52
2023-05-02T19:04:46.920Z,3.08
2023-05-02T19:07:16.162Z,2.35
2023-05-02T19:09:46.984Z,2.05
2023-05-02T19:12:24.079Z,3.17
2023-05-02T19:14:55.899Z,1.77
2023-05-02T19:17:27.880Z,1.82
2023-05-02T19:19:58.236Z,1.72
2023-05-02T19:22:27.969Z,2.30
2023-05-02T19:24:58.631Z,1.87
2023-05-02T19:27:27.649Z,2.47
2023-05-02T19:29:59.780Z,1.77
2023-05-02T19:32:28.897Z,1.95
2023-05-02T19:35:01.031Z,2.60
2023-05-02T19:37:30.004Z,1.70
2023-05-02T19:40:01.429Z,2.80
2023-05-02T19:42:31.575Z,4.92
2023-05-02T19:45:00.473Z,3.15
2023-05-02T19:47:38.729Z,2.85
2023-05-02T19:50:08.514Z,4.25
2023-05-02T19:52:39.111Z,1.90
2023-05-02T19:55:10.825Z,3.37
2023-05-02T19:57:44.105Z,4.97
2023-05-02T20:00:14.258Z,2.95
2023-05-02T20:02:43.094Z,5.25
2023-05-02T20:05:15.008Z,2.50
2023-05-02T20:07:45.190Z,2.40
2023-05-02T20:15:55.346Z,2.33
2023-05-02T20:18:28.568Z,2.92
2023-05-02T20:21:00.660Z,2.08
2023-05-02T20:23:33.283Z,2.77
2023-05-02T20:26:28.461Z,1.92
2023-05-02T20:29:00.635Z,1.77
2023-05-02T20:31:36.695Z,1.60
2023-05-02T20:34:05.895Z,2.10
2023-05-02T20:36:39.504Z,1.98
2023-05-02T20:39:10.904Z,1.65
2023-05-02T20:41:43.500Z,2.42
2023-05-02T20:44:33.432Z,1.75
2023-05-02T20:47:14.897Z,1.62
2023-05-02T20:49:51.329Z,1.72
2023-05-02T20:52:20.756Z,1.82
2023-05-02T20:54:51.595Z,1.75
2023-05-02T20:57:22.290Z,2.02
2023-05-02T20:59:51.424Z,1.42
2023-05-02T21:02:21.969Z,1.67
2023-05-02T21:04:51.296Z,1.87
2023-05-02T21:07:20.098Z,1.75
2023-05-02T21:09:48.885Z,1.75
2023-05-02T21:12:18.181Z,2.10
2023-05-02T21:14:46.801Z,2.72
2023-05-02T21:17:16.108Z,2.05
2023-05-02T21:19:44.883Z,2.12
2023-05-02T21:22:16.005Z,2.10
2023-05-02T21:24:46.287Z,2.00
2023-05-02T21:27:20.658Z,1.90
2023-05-02T21:29:52.765Z,1.80
2023-05-02T21:32:22.535Z,1.45
2023-05-02T21:34:51.527Z,2.00
2023-05-02T21:37:20.316Z,1.60
2023-05-02T21:39:50.455Z,1.70
2023-05-02T21:42:19.693Z,1.77
2023-05-02T21:44:49.390Z,1.82
2023-05-02T21:47:20.312Z,1.85
2023-05-02T21:49:52.807Z,2.02
2023-05-02T21:52:28.541Z,1.90
2023-05-02T21:55:07.705Z,1.50
2023-05-02T21:57:37.676Z,2.72
2023-05-02T22:00:11.809Z,2.47
2023-05-02T22:02:40.909Z,2.20
2023-05-02T22:05:10.728Z,1.70
2023-05-02T22:07:41.177Z,2.30
2023-05-02T22:10:18.171Z,1.52
2023-05-02T22:12:55.756Z,1.57
2023-05-02T22:15:24.655Z,1.55
2023-05-02T22:17:55.088Z,1.80
2023-05-02T22:20:25.297Z,1.70
2023-05-02T22:22:54.573Z,1.70
2023-05-02T22:25:26.151Z,2.15
2023-05-02T22:27:54.866Z,1.80
2023-05-02T22:30:23.735Z,1.95
2023-05-02T22:32:52.486Z,1.85
2023-05-02T22:35:21.573Z,1.82
2023-05-02T22:37:50.329Z,1.67
2023-05-02T22:40:19.157Z,1.70
2023-05-02T22:42:55.334Z,1.60
2023-05-02T22:45:24.187Z,1.82
2023-05-02T22:47:56.617Z,1.80
2023-05-02T22:50:33.448Z,1.50
2023-05-02T22:53:01.693Z,1.95
2023-05-02T22:55:31.698Z,1.62
2023-05-02T22:58:00.908Z,1.77
2023-05-02T23:00:29.635Z,1.60
2023-05-02T23:03:40.407Z,1.50
2023-05-02T23:06:14.834Z,1.52
2023-05-02T23:08:45.054Z,1.12
2023-05-02T23:11:21.613Z,1.62
2023-05-02T23:13:52.274Z,1.62
2023-05-02T23:16:20.888Z,1.32
2023-05-02T23:18:49.680Z,1.60
2023-05-02T23:21:20.708Z,1.37
2023-05-02T23:26:34.821Z,1.67
2023-05-02T23:29:15.100Z,1.62
2023-05-02T23:31:47.052Z,1.47
2023-05-02T23:34:21.427Z,1.67
2023-05-02T23:37:19.687Z,1.70
2023-05-02T23:39:43.873Z,1.77
2023-05-02T23:42:12.883Z,1.70
2023-05-02T23:44:46.490Z,1.75
2023-05-02T23:47:18.495Z,1.70
2023-05-02T23:49:48.819Z,1.62
2023-05-02T23:52:17.707Z,1.52
2023-05-02T23:54:47.880Z,2.00
2023-05-02T23:57:16.659Z,1.85
2023-05-02T23:59:45.571Z,2.02
